createdAt,value
2023-05-10T00:01:55.587Z,7.40
2023-05-10T00:07:59.134Z,8.20
2023-05-10T00:14:02.577Z,7.75
2023-05-10T00:20:08.059Z,8.15
2023-05-10T00:26:11.465Z,4.05
2023-05-10T00:32:14.989Z,6.97
2023-05-10T00:38:19.869Z,5.97
2023-05-10T00:44:23.255Z,8.68
2023-05-10T00:50:26.964Z,6.82
2023-05-10T00:56:31.861Z,7.50
2023-05-10T01:02:36.450Z,8.23
2023-05-10T01:08:40.240Z,8.27
2023-05-10T01:14:45.419Z,8.90
2023-05-10T01:20:51.517Z,7.50
2023-05-10T01:27:04.910Z,7.03
2023-05-10T01:33:12.969Z,4.10
2023-05-10T01:39:21.556Z,3.10
2023-05-10T01:45:30.051Z,2.75
2023-05-10T01:51:39.498Z,4.20
2023-05-10T01:57:45.116Z,4.40
2023-05-10T02:03:49.596Z,6.88
2023-05-10T02:09:54.664Z,7.07
2023-05-10T02:15:58.515Z,6.57
2023-05-10T02:22:02.256Z,4.45
2023-05-10T02:28:08.373Z,3.72
2023-05-10T02:34:13.235Z,3.60
2023-05-10T02:40:18.940Z,4.65
2023-05-10T02:46:23.938Z,3.55
2023-05-10T02:52:29.162Z,7.38
2023-05-10T02:58:32.902Z,5.43
2023-05-10T03:04:37.869Z,5.28
2023-05-10T03:10:44.512Z,5.03
2023-05-10T03:16:49.286Z,2.55
2023-05-10T03:22:55.949Z,4.25
2023-05-10T03:29:00.827Z,4.90
2023-05-10T03:35:04.271Z,4.53
2023-05-10T03:41:09.063Z,8.40
2023-05-10T03:47:12.728Z,12.60
2023-05-10T03:53:16.095Z,7.40
2023-05-10T03:59:21.077Z,13.35
2023-05-10T04:05:24.465Z,12.68
2023-05-10T04:11:27.876Z,9.10
2023-05-10T04:17:32.730Z,11.77
2023-05-10T04:23:36.151Z,15.30
2023-05-10T04:29:39.654Z,12.38
2023-05-10T04:35:45.687Z,10.40
2023-05-10T04:41:49.133Z,14.25
2023-05-10T04:47:52.535Z,13.15
2023-05-10T04:54:06.253Z,13.90
2023-05-10T05:00:10.776Z,12.80
2023-05-10T05:06:14.157Z,13.82
2023-05-10T05:12:19.279Z,12.75
2023-05-10T05:18:22.891Z,12.77
2023-05-10T05:24:26.560Z,12.82
2023-05-10T05:30:31.353Z,11.93
2023-05-10T05:36:37.535Z,12.32
2023-05-10T05:42:41.260Z,11.98
2023-05-10T05:48:49.376Z,12.65
2023-05-10T05:54:53.032Z,13.25
2023-05-10T06:00:56.597Z,13.05
2023-05-10T06:07:01.520Z,12.13
2023-05-10T06:13:05.126Z,12.05
2023-05-10T06:19:08.681Z,11.82
2023-05-10T06:25:13.637Z,13.68
2023-05-10T06:31:17.243Z,12.38
2023-05-10T06:37:21.266Z,11.80
2023-05-10T06:43:27.321Z,11.90
2023-05-10T06:49:30.816Z,12.65
2023-05-10T06:55:34.351Z,8.18
2023-05-10T07:01:39.326Z,11.93
2023-05-10T07:07:43.561Z,10.82
2023-05-10T07:13:47.521Z,12.82
2023-05-10T07:19:52.319Z,9.63
2023-05-10T07:25:56.023Z,9.95
2023-05-10T07:31:59.778Z,9.88
2023-05-10T07:38:04.885Z,9.73
2023-05-10T07:44:08.672Z,9.23
2023-05-10T07:50:12.371Z,7.72
2023-05-10T07:56:28.415Z,9.90
2023-05-10T08:02:31.987Z,10.48
2023-05-10T08:08:35.590Z,11.07
2023-05-10T08:14:40.441Z,10.65
2023-05-10T08:20:43.904Z,8.98
2023-05-10T08:26:47.279Z,9.38
2023-05-10T08:32:52.134Z,10.15
2023-05-10T08:38:56.073Z,9.95
2023-05-10T08:44:59.987Z,10.35
2023-05-10T08:51:05.707Z,10.20
2023-05-10T08:57:09.309Z,11.35
2023-05-10T09:03:12.757Z,11.10
2023-05-10T09:09:18.224Z,11.13
2023-05-10T09:15:21.901Z,13.43
2023-05-10T09:21:25.531Z,14.35
2023-05-10T09:27:30.933Z,10.63
2023-05-10T09:33:46.323Z,9.75
2023-05-10T09:39:49.851Z,9.02
2023-05-10T09:45:54.635Z,7.03
2023-05-10T09:52:04.873Z,6.60
2023-05-10T09:58:11.633Z,6.78
2023-05-10T10:04:17.260Z,7.78
2023-05-10T10:10:20.795Z,9.07
2023-05-10T10:16:24.292Z,9.48
2023-05-10T10:22:29.118Z,6.68
2023-05-10T10:28:37.279Z,5.80
2023-05-10T10:34:41.758Z,6.03
2023-05-10T10:40:46.644Z,5.10
2023-05-10T10:47:01.826Z,6.43
2023-05-10T10:53:14.047Z,6.35
2023-05-10T10:59:29.331Z,4.80
2023-05-10T11:05:43.856Z,5.22
2023-05-10T11:11:56.195Z,6.00
2023-05-10T11:18:01.386Z,5.78
2023-05-10T11:24:07.250Z,4.95
2023-05-10T11:30:12.559Z,4.15
2023-05-10T11:36:19.185Z,3.97
2023-05-10T11:42:22.687Z,3.80
2023-05-10T11:48:26.324Z,4.13
2023-05-10T11:54:32.474Z,4.73
2023-05-10T12:00:35.931Z,4.30
2023-05-10T12:06:42.537Z,3.60
2023-05-10T12:12:49.190Z,3.20
2023-05-10T12:18:53.152Z,3.35
2023-05-10T12:24:56.770Z,3.67
2023-05-10T12:31:01.898Z,2.92
2023-05-10T12:37:05.670Z,2.83
2023-05-10T12:43:09.340Z,2.40
2023-05-10T12:49:14.293Z,2.35
2023-05-10T12:55:18.412Z,2.60
2023-05-10T13:01:21.866Z,2.35
2023-05-10T13:07:26.698Z,1.92
2023-05-10T13:13:30.113Z,1.58
2023-05-10T13:19:33.670Z,1.83
2023-05-10T13:25:38.515Z,2.42
2023-05-10T13:31:41.991Z,2.20
2023-05-10T13:37:45.558Z,1.88
2023-05-10T13:43:51.229Z,1.65
2023-05-10T13:49:55.569Z,1.83
2023-05-10T13:55:59.194Z,2.20
2023-05-10T14:02:04.890Z,1.77
2023-05-10T14:08:10.374Z,1.90
2023-05-10T14:14:14.329Z,1.67
2023-05-10T14:20:19.680Z,3.05
2023-05-10T14:26:23.101Z,2.58
2023-05-10T14:32:28.067Z,2.50
2023-05-10T14:38:32.973Z,2.00
2023-05-10T14:44:36.438Z,2.38
2023-05-10T14:50:40.607Z,2.08
2023-05-10T14:56:45.569Z,1.88
2023-05-10T15:02:49.485Z,1.92
2023-05-10T15:08:53.738Z,2.28
2023-05-10T15:14:58.795Z,2.05
2023-05-10T15:21:02.254Z,3.33
2023-05-10T15:27:05.803Z,3.00
2023-05-10T15:33:10.711Z,3.35
2023-05-10T15:39:14.559Z,3.28
2023-05-10T15:45:18.174Z,2.60
2023-05-10T15:51:23.353Z,2.10
2023-05-10T15:57:26.779Z,1.73
2023-05-10T16:03:31.059Z,2.90
2023-05-10T16:09:35.903Z,2.15
2023-05-10T16:15:39.397Z,2.10
2023-05-10T16:21:42.841Z,2.40
2023-05-10T16:27:47.591Z,2.28
2023-05-10T16:33:52.056Z,1.92
2023-05-10T16:39:55.496Z,2.05
2023-05-10T16:46:00.490Z,3.25
2023-05-10T16:52:04.211Z,2.47
2023-05-10T16:58:07.713Z,2.40
2023-05-10T17:04:12.643Z,1.45
2023-05-10T17:10:16.355Z,1.52
2023-05-10T17:16:20.979Z,1.70
2023-05-10T17:22:26.026Z,2.60
2023-05-10T17:28:29.401Z,2.65
2023-05-10T17:34:32.844Z,2.38
2023-05-10T17:40:37.846Z,2.40
2023-05-10T17:46:41.316Z,2.22
2023-05-10T17:52:44.699Z,2.60
2023-05-10T17:58:50.533Z,2.78
2023-05-10T18:04:54.042Z,3.28
2023-05-10T18:10:57.593Z,2.88
2023-05-10T18:17:02.535Z,2.95
2023-05-10T18:23:06.410Z,2.97
2023-05-10T18:29:10.736Z,3.22
2023-05-10T18:35:15.886Z,3.50
2023-05-10T18:41:19.416Z,4.40
2023-05-10T18:47:22.901Z,2.03
2023-05-10T18:53:27.836Z,1.98
2023-05-10T18:59:31.563Z,2.03
2023-05-10T19:05:35.001Z,1.70
2023-05-10T19:11:39.847Z,2.13
2023-05-10T19:17:45.735Z,2.55
2023-05-10T19:23:49.367Z,1.95
2023-05-10T19:29:54.599Z,2.25
2023-05-10T19:35:58.161Z,2.65
2023-05-10T19:42:01.728Z,2.10
2023-05-10T19:48:06.767Z,1.90
2023-05-10T19:54:10.416Z,2.60
2023-05-10T20:00:14.427Z,2.85
2023-05-10T20:06:19.170Z,2.53
2023-05-10T20:12:22.560Z,2.58
2023-05-10T20:18:26.251Z,2.53
2023-05-10T20:24:31.367Z,2.85
2023-05-10T20:30:34.765Z,2.80
2023-05-10T20:36:38.283Z,2.63
2023-05-10T20:42:43.045Z,3.13
2023-05-10T20:48:46.498Z,3.00
2023-05-10T20:54:50.005Z,2.80
2023-05-10T21:00:54.982Z,2.80
2023-05-10T21:06:58.505Z,3.08
2023-05-10T21:13:01.917Z,2.50
2023-05-10T21:19:07.654Z,2.78
2023-05-10T21:25:13.491Z,2.20
2023-05-10T21:31:17.328Z,2.42
2023-05-10T21:37:22.462Z,2.72
2023-05-10T21:43:26.001Z,2.72
2023-05-10T21:49:29.381Z,2.10
2023-05-10T21:55:34.370Z,2.35
2023-05-10T22:01:38.503Z,2.67
2023-05-10T22:07:41.958Z,2.70
2023-05-10T22:13:46.820Z,3.10
2023-05-10T22:19:50.472Z,2.65
2023-05-10T22:25:53.865Z,2.45
2023-05-10T22:31:58.842Z,2.45
2023-05-10T22:38:03.272Z,2.90
2023-05-10T22:44:06.680Z,2.80
2023-05-10T22:50:12.811Z,2.80
2023-05-10T22:56:16.453Z,2.35
2023-05-10T23:02:19.972Z,3.15
2023-05-10T23:08:25.088Z,2.88
2023-05-10T23:14:28.527Z,2.45
2023-05-10T23:20:32.251Z,3.40
2023-05-10T23:26:37.061Z,3.38
2023-05-10T23:32:41.177Z,3.15
2023-05-10T23:38:45.268Z,3.60
2023-05-10T23:44:50.014Z,3.03
2023-05-10T23:50:53.494Z,4.22
2023-05-10T23:56:57.111Z,3.63
